createdAt,value
2019-03-22T00:01:09.968Z,11.93
2019-03-22T00:02:19.755Z,12.60
2019-03-22T00:03:28.319Z,13.43
2019-03-22T00:04:36.727Z,14.13
2019-03-22T00:05:44.815Z,16.30
2019-03-22T00:06:53.104Z,17.53
2019-03-22T00:08:01.214Z,11.37
2019-03-22T00:09:09.640Z,14.50
2019-03-22T00:10:17.909Z,15.57
2019-03-22T00:11:25.880Z,15.73
2019-03-22T00:12:34.324Z,12.80
2019-03-22T00:13:42.369Z,15.73
2019-03-22T00:14:50.365Z,24.80
2019-03-22T00:15:58.483Z,21.43
2019-03-22T00:17:06.524Z,13.00
2019-03-22T00:18:14.570Z,14.27
2019-03-22T00:19:22.560Z,14.37
2019-03-22T00:20:30.675Z,14.87
2019-03-22T00:21:38.809Z,15.10
2019-03-22T00:22:46.733Z,19.20
2019-03-22T00:23:55.209Z,17.47
2019-03-22T00:25:03.582Z,15.60
2019-03-22T00:26:11.776Z,15.57
2019-03-22T00:27:19.884Z,15.87
2019-03-22T00:28:28.072Z,16.17
2019-03-22T00:29:36.304Z,12.20
2019-03-22T00:30:44.381Z,18.03
2019-03-22T00:31:52.362Z,19.30
2019-03-22T00:33:00.349Z,17.20
2019-03-22T00:34:08.412Z,19.20
2019-03-22T00:35:16.883Z,13.33
2019-03-22T00:36:24.877Z,14.40
2019-03-22T00:37:32.791Z,14.93
2019-03-22T00:38:40.773Z,15.77
2019-03-22T00:39:48.965Z,23.27
2019-03-22T00:40:57.445Z,25.17
2019-03-22T00:42:05.432Z,17.70
2019-03-22T00:43:13.553Z,19.90
2019-03-22T00:44:21.854Z,17.43
2019-03-22T00:45:29.880Z,13.97
2019-03-22T00:46:37.847Z,11.00
2019-03-22T00:47:45.802Z,16.53
2019-03-22T00:48:54.132Z,24.10
2019-03-22T00:50:02.359Z,20.00
2019-03-22T00:51:10.359Z,13.87
2019-03-22T00:52:18.615Z,11.70
2019-03-22T00:53:26.681Z,21.60
2019-03-22T00:54:34.721Z,18.97
2019-03-22T00:55:43.045Z,20.83
2019-03-22T00:56:51.034Z,30.43
2019-03-22T00:57:59.063Z,22.27
2019-03-22T00:59:07.185Z,13.00
2019-03-22T01:00:18.330Z,16.50
2019-03-22T01:01:26.482Z,21.70
2019-03-22T01:02:34.551Z,21.10
2019-03-22T01:03:42.563Z,15.87
2019-03-22T01:04:50.679Z,22.83
2019-03-22T01:05:58.748Z,22.07
2019-03-22T01:07:06.841Z,19.33
2019-03-22T01:08:14.726Z,18.10
2019-03-22T01:09:22.669Z,20.87
2019-03-22T01:10:30.691Z,17.60
2019-03-22T01:11:38.848Z,20.73
2019-03-22T01:12:46.935Z,25.80
2019-03-22T01:13:55.081Z,26.53
2019-03-22T01:15:03.237Z,21.63
2019-03-22T01:16:11.132Z,22.10
2019-03-22T01:17:19.197Z,18.10
2019-03-22T01:18:27.313Z,23.43
2019-03-22T01:19:35.410Z,22.13
2019-03-22T01:20:43.358Z,22.67
2019-03-22T01:21:51.515Z,28.80
2019-03-22T01:22:59.650Z,28.87
2019-03-22T01:24:07.906Z,23.57
2019-03-22T01:25:16.028Z,22.93
2019-03-22T01:26:23.883Z,20.10
2019-03-22T01:27:40.478Z,24.43
2019-03-22T01:28:41.628Z,21.53
2019-03-22T01:29:50.021Z,26.57
2019-03-22T01:30:57.965Z,27.67
2019-03-22T01:32:05.907Z,21.83
2019-03-22T01:33:14.101Z,19.63
2019-03-22T01:34:22.059Z,17.20
2019-03-22T01:35:30.044Z,18.93
2019-03-22T01:36:37.897Z,22.73
2019-03-22T01:37:45.894Z,27.50
2019-03-22T01:38:54.403Z,27.93
2019-03-22T01:40:02.672Z,30.60
2019-03-22T01:41:10.656Z,23.87
2019-03-22T01:42:18.650Z,19.70
2019-03-22T01:43:27.093Z,19.77
2019-03-22T01:44:35.270Z,20.27
2019-03-22T01:45:43.312Z,15.30
2019-03-22T01:46:51.346Z,22.13
2019-03-22T01:47:59.380Z,26.17
2019-03-22T01:49:07.523Z,20.40
2019-03-22T01:50:18.725Z,17.37
2019-03-22T01:51:26.666Z,13.47
2019-03-22T01:52:34.751Z,18.27
2019-03-22T01:53:42.834Z,19.33
2019-03-22T01:54:50.870Z,18.70
2019-03-22T01:55:58.916Z,20.90
2019-03-22T01:57:06.834Z,18.00
2019-03-22T01:58:14.884Z,22.50
2019-03-22T01:59:22.830Z,24.33
2019-03-22T02:00:30.893Z,19.40
2019-03-22T02:01:39.004Z,19.47
2019-03-22T02:02:47.415Z,20.57
2019-03-22T02:03:55.597Z,26.30
2019-03-22T02:05:04.101Z,24.17
2019-03-22T02:06:12.536Z,18.40
2019-03-22T02:07:20.585Z,19.03
2019-03-22T02:08:28.762Z,16.13
2019-03-22T02:09:36.694Z,21.67
2019-03-22T02:10:44.794Z,18.07
2019-03-22T02:11:52.838Z,19.37
2019-03-22T02:13:01.009Z,20.87
2019-03-22T02:14:09.292Z,15.90
2019-03-22T02:15:18.011Z,16.87
2019-03-22T02:16:26.212Z,15.40
2019-03-22T02:17:34.387Z,20.40
2019-03-22T02:18:42.443Z,21.13
2019-03-22T02:19:50.510Z,23.83
2019-03-22T02:20:58.457Z,26.87
2019-03-22T02:22:06.604Z,19.70
2019-03-22T02:23:14.730Z,13.80
2019-03-22T02:24:22.968Z,11.67
2019-03-22T02:25:31.489Z,11.30
2019-03-22T02:26:39.893Z,13.00
2019-03-22T02:27:48.034Z,13.50
2019-03-22T02:28:56.215Z,20.93
2019-03-22T02:30:06.090Z,18.87
2019-03-22T02:31:14.222Z,14.33
2019-03-22T02:32:22.024Z,13.50
2019-03-22T02:33:30.160Z,15.70
2019-03-22T02:34:38.347Z,11.90
2019-03-22T02:35:46.452Z,10.07
2019-03-22T02:36:54.495Z,16.17
2019-03-22T02:38:02.277Z,21.07
2019-03-22T02:39:10.367Z,13.40
2019-03-22T02:40:19.127Z,14.43
2019-03-22T02:41:27.408Z,15.53
2019-03-22T02:42:35.702Z,18.37
2019-03-22T02:43:43.732Z,13.77
2019-03-22T02:44:51.957Z,14.83
2019-03-22T02:45:59.883Z,20.70
2019-03-22T02:47:08.505Z,16.83
2019-03-22T02:48:16.494Z,13.47
2019-03-22T02:49:24.453Z,14.60
2019-03-22T02:50:32.722Z,17.73
2019-03-22T02:51:40.993Z,16.90
2019-03-22T02:52:49.015Z,18.80
2019-03-22T02:53:56.897Z,20.00
2019-03-22T02:55:06.763Z,20.00
2019-03-22T02:56:14.891Z,17.50
2019-03-22T02:57:22.918Z,15.13
2019-03-22T02:58:31.214Z,16.27
2019-03-22T02:59:39.724Z,14.43
2019-03-22T03:00:47.843Z,13.80
2019-03-22T03:01:55.666Z,19.83
2019-03-22T03:03:03.714Z,18.17
2019-03-22T03:04:11.987Z,10.00
2019-03-22T03:05:20.311Z,11.60
2019-03-22T03:06:28.257Z,9.13
2019-03-22T03:07:36.503Z,13.10
2019-03-22T03:08:44.439Z,15.47
2019-03-22T03:09:53.415Z,11.80
2019-03-22T03:11:01.672Z,22.03
2019-03-22T03:12:09.820Z,18.33
2019-03-22T03:13:18.418Z,14.03
2019-03-22T03:14:26.519Z,14.57
2019-03-22T03:15:34.485Z,15.43
2019-03-22T03:16:42.810Z,12.67
2019-03-22T03:17:51.038Z,14.53
2019-03-22T03:18:59.326Z,15.50
2019-03-22T03:20:11.252Z,24.27
2019-03-22T03:21:19.249Z,11.33
2019-03-22T03:22:27.209Z,19.23
2019-03-22T03:23:35.462Z,12.60
2019-03-22T03:24:43.846Z,14.37
2019-03-22T03:25:52.194Z,20.73
2019-03-22T03:27:00.488Z,20.23
2019-03-22T03:28:08.693Z,15.67
2019-03-22T03:29:16.682Z,12.43
2019-03-22T03:30:24.876Z,19.97
2019-03-22T03:31:32.543Z,14.90
2019-03-22T03:32:40.574Z,18.83
2019-03-22T03:33:48.610Z,17.07
2019-03-22T03:34:56.670Z,15.23
2019-03-22T03:36:05.171Z,21.20
2019-03-22T03:37:13.174Z,16.63
2019-03-22T03:38:21.292Z,16.43
2019-03-22T03:39:29.528Z,14.00
2019-03-22T03:40:37.478Z,12.43
2019-03-22T03:41:45.402Z,13.10
2019-03-22T03:42:53.421Z,12.07
2019-03-22T03:44:01.398Z,17.63
2019-03-22T03:45:38.156Z,19.13
2019-03-22T03:46:46.099Z,12.67
2019-03-22T03:47:54.265Z,12.83
2019-03-22T03:49:02.189Z,19.83
2019-03-22T03:50:10.917Z,22.80
2019-03-22T03:51:18.882Z,15.43
2019-03-22T03:52:26.894Z,13.93
2019-03-22T03:53:34.998Z,10.40
2019-03-22T03:54:42.789Z,12.87
2019-03-22T03:55:50.994Z,10.80
2019-03-22T03:56:58.955Z,17.73
2019-03-22T03:58:08.112Z,17.23
2019-03-22T03:59:16.281Z,13.30
2019-03-22T04:00:24.125Z,11.67
2019-03-22T04:01:32.463Z,14.67
2019-03-22T04:02:40.514Z,12.77
2019-03-22T04:03:48.330Z,15.73
2019-03-22T04:04:56.396Z,16.33
2019-03-22T04:06:04.450Z,18.67
2019-03-22T04:07:12.502Z,20.87
2019-03-22T04:08:20.463Z,16.70
2019-03-22T04:09:28.434Z,11.80
2019-03-22T04:10:36.753Z,17.77
2019-03-22T04:11:44.874Z,17.83
2019-03-22T04:12:52.868Z,15.37
2019-03-22T04:14:01.126Z,14.97
2019-03-22T04:15:09.630Z,22.10
2019-03-22T04:16:17.641Z,10.17
2019-03-22T04:17:25.621Z,9.10
2019-03-22T04:18:33.633Z,18.97
2019-03-22T04:19:41.533Z,13.63
2019-03-22T04:20:49.645Z,14.47
2019-03-22T04:21:58.547Z,13.40
2019-03-22T04:23:06.736Z,18.30
2019-03-22T04:24:14.680Z,15.97
2019-03-22T04:25:22.843Z,15.53
2019-03-22T04:26:30.787Z,12.50
2019-03-22T04:27:38.830Z,9.53
2019-03-22T04:28:46.739Z,10.93
2019-03-22T04:29:54.585Z,12.30
2019-03-22T04:31:02.612Z,20.87
2019-03-22T04:32:10.474Z,18.03
2019-03-22T04:33:18.921Z,12.97
2019-03-22T04:34:27.083Z,13.77
2019-03-22T04:35:35.509Z,14.47
2019-03-22T04:36:43.503Z,16.47
2019-03-22T04:37:51.827Z,12.40
2019-03-22T04:38:59.899Z,13.67
2019-03-22T04:40:23.170Z,18.90
2019-03-22T04:41:31.284Z,12.33
2019-03-22T04:42:39.857Z,16.77
2019-03-22T04:43:47.811Z,12.37
2019-03-22T04:44:55.974Z,13.23
2019-03-22T04:46:05.186Z,19.73
2019-03-22T04:47:17.612Z,22.77
2019-03-22T04:48:35.885Z,13.80
2019-03-22T04:49:45.697Z,10.17
2019-03-22T04:50:57.551Z,12.37
2019-03-22T04:52:06.712Z,24.97
2019-03-22T04:53:21.768Z,21.57
2019-03-22T04:54:33.080Z,14.07
2019-03-22T04:55:44.271Z,14.63
2019-03-22T04:56:53.601Z,11.97
2019-03-22T04:58:04.659Z,13.50
2019-03-22T04:59:19.440Z,16.63
2019-03-22T05:00:27.134Z,9.03
2019-03-22T05:01:36.747Z,10.63
2019-03-22T05:02:46.143Z,10.70
2019-03-22T05:03:55.285Z,10.67
2019-03-22T05:05:05.566Z,13.87
2019-03-22T05:06:14.758Z,14.87
2019-03-22T05:07:23.481Z,9.87
2019-03-22T05:08:36.179Z,10.23
2019-03-22T05:09:45.389Z,8.07
2019-03-22T05:10:56.103Z,8.87
2019-03-22T05:12:06.783Z,12.47
2019-03-22T05:13:18.161Z,14.23
2019-03-22T05:14:26.821Z,8.20
2019-03-22T05:15:35.892Z,7.00
2019-03-22T05:16:47.924Z,10.40
2019-03-22T05:17:56.067Z,9.23
2019-03-22T05:19:06.922Z,10.20
2019-03-22T05:20:17.246Z,15.23
2019-03-22T05:21:28.630Z,12.87
2019-03-22T05:22:39.079Z,9.47
2019-03-22T05:23:51.342Z,8.13
2019-03-22T05:25:02.089Z,10.37
2019-03-22T05:26:11.749Z,13.33
2019-03-22T05:27:21.697Z,13.27
2019-03-22T05:28:32.191Z,11.27
2019-03-22T05:29:43.669Z,10.47
2019-03-22T05:31:04.612Z,12.40
2019-03-22T05:32:14.814Z,17.73
2019-03-22T05:33:22.582Z,18.23
2019-03-22T05:34:30.310Z,15.33
2019-03-22T05:35:38.514Z,17.10
2019-03-22T05:36:46.594Z,15.00
2019-03-22T05:37:54.516Z,14.27
2019-03-22T05:39:02.797Z,16.60
2019-03-22T05:40:10.898Z,17.43
2019-03-22T05:41:19.021Z,22.67
2019-03-22T05:42:27.082Z,17.87
2019-03-22T05:43:35.073Z,13.07
2019-03-22T05:44:43.273Z,15.03
2019-03-22T05:45:51.251Z,8.70
2019-03-22T05:47:00.701Z,12.57
2019-03-22T05:48:08.696Z,13.13
2019-03-22T05:49:16.998Z,15.33
2019-03-22T05:50:25.816Z,11.07
2019-03-22T05:51:34.110Z,12.67
2019-03-22T05:52:42.219Z,9.43
2019-03-22T05:53:50.408Z,11.43
2019-03-22T05:54:58.587Z,9.60
2019-03-22T05:56:06.690Z,14.87
2019-03-22T05:57:14.726Z,14.83
2019-03-22T05:58:23.111Z,16.67
2019-03-22T05:59:42.029Z,14.23
2019-03-22T06:00:41.531Z,11.33
2019-03-22T06:01:49.819Z,12.10
2019-03-22T06:02:57.967Z,10.03
2019-03-22T06:04:06.309Z,11.13
2019-03-22T06:05:14.584Z,15.50
2019-03-22T06:06:22.934Z,16.97
2019-03-22T06:07:31.134Z,11.53
2019-03-22T06:08:39.464Z,11.17
2019-03-22T06:09:47.635Z,10.53
2019-03-22T06:10:55.942Z,9.53
2019-03-22T06:12:03.982Z,11.67
2019-03-22T06:13:12.430Z,17.03
2019-03-22T06:14:21.597Z,18.57
2019-03-22T06:15:29.631Z,12.77
2019-03-22T06:16:37.706Z,12.83
2019-03-22T06:17:51.514Z,10.13
2019-03-22T06:18:55.782Z,10.70
2019-03-22T06:20:05.068Z,8.83
2019-03-22T06:21:13.340Z,15.43
2019-03-22T06:22:21.693Z,18.60
2019-03-22T06:23:29.962Z,12.87
2019-03-22T06:24:38.035Z,10.10
2019-03-22T06:25:46.104Z,12.03
2019-03-22T06:26:54.069Z,10.57
2019-03-22T06:28:02.090Z,12.30
2019-03-22T06:29:10.188Z,13.60
2019-03-22T06:30:18.655Z,16.80
2019-03-22T06:31:27.085Z,9.43
2019-03-22T06:32:35.377Z,11.83
2019-03-22T06:33:43.373Z,11.00
2019-03-22T06:34:51.351Z,15.50
2019-03-22T06:35:59.637Z,11.37
2019-03-22T06:37:07.713Z,12.77
2019-03-22T06:38:15.874Z,16.10
2019-03-22T06:39:24.500Z,14.67
2019-03-22T06:40:32.705Z,15.20
2019-03-22T06:41:40.920Z,11.70
2019-03-22T06:42:48.914Z,11.63
2019-03-22T06:43:56.861Z,10.63
2019-03-22T06:45:06.503Z,10.50
2019-03-22T06:46:14.544Z,14.30
2019-03-22T06:47:22.940Z,15.60
2019-03-22T06:48:31.138Z,10.07
2019-03-22T06:49:39.238Z,10.63
2019-03-22T06:50:47.821Z,11.03
2019-03-22T06:51:56.190Z,12.37
2019-03-22T06:53:04.531Z,14.43
2019-03-22T06:54:12.563Z,13.37
2019-03-22T06:55:20.758Z,14.87
2019-03-22T06:56:29.026Z,15.03
2019-03-22T06:57:37.260Z,14.43
2019-03-22T06:58:45.548Z,10.90
2019-03-22T07:00:05.523Z,9.23
2019-03-22T07:01:03.313Z,9.47
2019-03-22T07:02:11.530Z,10.90
2019-03-22T07:03:19.898Z,14.33
2019-03-22T07:04:28.296Z,14.47
2019-03-22T07:05:36.422Z,11.60
2019-03-22T07:06:44.582Z,12.03
2019-03-22T07:07:52.997Z,11.03
2019-03-22T07:09:01.203Z,9.93
2019-03-22T07:10:10.212Z,11.43
2019-03-22T07:11:18.229Z,20.40
2019-03-22T07:12:26.920Z,15.83
2019-03-22T07:13:35.121Z,11.80
2019-03-22T07:14:43.111Z,11.73
2019-03-22T07:15:51.227Z,9.00
2019-03-22T07:16:59.304Z,10.83
2019-03-22T07:18:07.448Z,9.00
2019-03-22T07:19:16.068Z,15.60
2019-03-22T07:20:24.017Z,16.77
2019-03-22T07:21:32.068Z,12.13
2019-03-22T07:22:40.012Z,12.77
2019-03-22T07:23:48.267Z,9.03
2019-03-22T07:24:56.391Z,13.27
2019-03-22T07:26:04.613Z,7.87
2019-03-22T07:27:12.753Z,13.83
2019-03-22T07:28:20.934Z,13.77
2019-03-22T07:29:29.392Z,14.50
2019-03-22T07:30:37.594Z,12.80
2019-03-22T07:31:46.209Z,8.77
2019-03-22T07:32:54.399Z,9.73
2019-03-22T07:34:02.349Z,10.10
2019-03-22T07:35:10.288Z,12.97
2019-03-22T07:36:18.291Z,13.93
2019-03-22T07:37:26.638Z,13.63
2019-03-22T07:38:34.602Z,10.87
2019-03-22T07:39:42.658Z,13.87
2019-03-22T07:40:50.802Z,11.07
2019-03-22T07:41:58.666Z,11.53
2019-03-22T07:43:06.601Z,12.17
2019-03-22T07:44:15.265Z,16.83
2019-03-22T07:45:23.871Z,12.57
2019-03-22T07:46:31.926Z,12.20
2019-03-22T07:47:39.962Z,9.27
2019-03-22T07:48:48.057Z,10.13
2019-03-22T07:49:56.108Z,9.50
2019-03-22T07:51:04.164Z,9.90
2019-03-22T07:52:14.356Z,9.87
2019-03-22T07:53:22.821Z,14.00
2019-03-22T07:54:30.724Z,10.60
2019-03-22T07:55:38.893Z,11.90
2019-03-22T07:56:46.984Z,11.83
2019-03-22T07:57:55.084Z,10.80
2019-03-22T07:59:03.083Z,10.40
2019-03-22T08:00:13.558Z,11.53
2019-03-22T08:01:22.129Z,15.60
2019-03-22T08:02:30.348Z,12.13
2019-03-22T08:03:38.439Z,11.20
2019-03-22T08:04:46.430Z,10.73
2019-03-22T08:05:54.629Z,11.30
2019-03-22T08:07:02.892Z,9.70
2019-03-22T08:08:10.922Z,11.73
2019-03-22T08:09:19.027Z,14.87
2019-03-22T08:10:26.950Z,13.53
2019-03-22T08:11:35.178Z,8.87
2019-03-22T08:12:43.212Z,9.43
2019-03-22T08:13:51.324Z,10.23
2019-03-22T08:14:59.605Z,8.77
2019-03-22T08:16:07.724Z,8.77
2019-03-22T08:17:15.695Z,14.00
2019-03-22T08:18:24.318Z,15.30
2019-03-22T08:19:32.598Z,9.53
2019-03-22T08:20:40.951Z,9.27
2019-03-22T08:21:49.015Z,11.30
2019-03-22T08:22:57.130Z,8.50
2019-03-22T08:24:05.341Z,7.93
2019-03-22T08:25:13.364Z,10.63
2019-03-22T08:26:21.257Z,12.17
2019-03-22T08:27:29.498Z,13.57
2019-03-22T08:28:37.498Z,10.90
2019-03-22T08:29:45.449Z,8.10
2019-03-22T08:30:53.483Z,9.17
2019-03-22T08:32:01.489Z,8.40
2019-03-22T08:33:09.893Z,8.40
2019-03-22T08:34:18.497Z,12.63
2019-03-22T08:35:26.592Z,9.23
2019-03-22T08:36:35.111Z,8.40
2019-03-22T08:37:51.977Z,10.33
2019-03-22T08:38:53.030Z,8.80
2019-03-22T08:40:01.122Z,9.30
2019-03-22T08:41:09.454Z,9.33
2019-03-22T08:42:17.658Z,12.70
2019-03-22T08:43:26.062Z,13.57
2019-03-22T08:44:34.653Z,8.53
2019-03-22T08:45:43.042Z,10.63
2019-03-22T08:46:51.334Z,9.10
2019-03-22T08:47:59.432Z,9.03
2019-03-22T08:49:09.504Z,7.63
2019-03-22T08:50:17.615Z,11.63
2019-03-22T08:51:25.704Z,11.57
2019-03-22T08:52:34.150Z,10.03
2019-03-22T08:53:54.558Z,8.73
2019-03-22T08:54:52.024Z,7.83
2019-03-22T08:56:00.102Z,8.60
2019-03-22T08:57:08.109Z,7.67
2019-03-22T08:58:18.479Z,8.23
2019-03-22T08:59:25.794Z,11.53
2019-03-22T09:00:39.574Z,9.83
2019-03-22T09:01:43.777Z,8.53
2019-03-22T09:02:52.057Z,9.67
2019-03-22T09:04:00.171Z,10.57
2019-03-22T09:05:08.550Z,7.13
2019-03-22T09:06:16.785Z,10.60
2019-03-22T09:07:25.177Z,10.53
2019-03-22T09:08:33.156Z,11.20
2019-03-22T09:09:42.031Z,8.50
2019-03-22T09:10:50.066Z,7.80
2019-03-22T09:11:58.017Z,6.23
2019-03-22T09:13:05.975Z,7.83
2019-03-22T09:14:14.012Z,6.43
2019-03-22T09:15:22.217Z,11.03
2019-03-22T09:16:30.925Z,11.30
2019-03-22T09:17:38.966Z,5.17
2019-03-22T09:18:46.874Z,5.67
2019-03-22T09:19:55.441Z,4.77
2019-03-22T09:21:03.523Z,5.23
2019-03-22T09:22:11.609Z,6.20
2019-03-22T09:23:19.805Z,7.73
2019-03-22T09:24:38.656Z,10.87
2019-03-22T09:25:37.766Z,5.07
2019-03-22T09:26:47.969Z,5.23
2019-03-22T09:27:55.550Z,4.53
2019-03-22T09:29:03.851Z,5.80
2019-03-22T09:30:15.632Z,5.93
2019-03-22T09:31:23.665Z,8.90
2019-03-22T09:32:31.972Z,9.33
2019-03-22T09:33:40.009Z,7.13
2019-03-22T09:34:48.004Z,5.67
2019-03-22T09:35:56.036Z,7.40
2019-03-22T09:37:04.344Z,4.50
2019-03-22T09:38:13.391Z,6.03
2019-03-22T09:39:21.741Z,7.87
2019-03-22T09:40:30.177Z,12.43
2019-03-22T09:41:38.618Z,8.33
2019-03-22T09:42:47.934Z,7.93
2019-03-22T09:43:56.271Z,5.57
2019-03-22T09:45:05.982Z,5.87
2019-03-22T09:46:14.081Z,7.03
2019-03-22T09:47:22.299Z,8.90
2019-03-22T09:48:30.304Z,13.70
2019-03-22T09:49:38.390Z,7.53
2019-03-22T09:50:46.501Z,5.03
2019-03-22T09:51:55.332Z,7.90
2019-03-22T09:53:03.433Z,7.50
2019-03-22T09:54:11.730Z,5.60
2019-03-22T09:55:19.744Z,5.93
2019-03-22T09:56:27.717Z,12.40
2019-03-22T09:57:35.925Z,10.67
2019-03-22T09:58:44.100Z,7.27
2019-03-22T09:59:52.114Z,6.50
2019-03-22T10:01:00.239Z,7.63
2019-03-22T10:02:08.821Z,5.57
2019-03-22T10:03:17.162Z,4.87
2019-03-22T10:04:25.281Z,9.07
2019-03-22T10:05:34.698Z,10.17
2019-03-22T10:06:43.051Z,7.10
2019-03-22T10:07:50.746Z,5.30
2019-03-22T10:09:02.628Z,5.30
2019-03-22T10:10:09.436Z,4.73
2019-03-22T10:11:17.527Z,5.30
2019-03-22T10:12:25.678Z,8.13
2019-03-22T10:13:33.789Z,10.10
2019-03-22T10:14:41.938Z,7.10
2019-03-22T10:15:49.977Z,7.73
2019-03-22T10:16:58.027Z,8.10
2019-03-22T10:18:07.690Z,6.27
2019-03-22T10:19:15.960Z,8.30
2019-03-22T10:20:23.934Z,8.10
2019-03-22T10:21:31.960Z,12.10
2019-03-22T10:22:40.129Z,7.73
2019-03-22T10:23:48.366Z,5.57
2019-03-22T10:24:56.580Z,6.80
2019-03-22T10:26:05.061Z,5.17
2019-03-22T10:27:13.007Z,5.23
2019-03-22T10:28:20.974Z,7.63
2019-03-22T10:29:28.841Z,10.90
2019-03-22T10:30:36.884Z,11.60
2019-03-22T10:31:45.109Z,6.00
2019-03-22T10:32:53.128Z,8.50
2019-03-22T10:34:01.303Z,4.43
2019-03-22T10:35:09.372Z,6.57
2019-03-22T10:36:18.710Z,6.90
2019-03-22T10:37:26.799Z,10.50
2019-03-22T10:38:36.314Z,10.97
2019-03-22T10:39:44.533Z,7.47
2019-03-22T10:40:52.378Z,8.87
2019-03-22T10:42:00.590Z,6.80
2019-03-22T10:43:08.548Z,6.00
2019-03-22T10:44:16.543Z,7.40
2019-03-22T10:45:24.580Z,8.83
2019-03-22T10:46:32.417Z,16.60
2019-03-22T10:47:40.686Z,12.67
2019-03-22T10:48:49.190Z,6.97
2019-03-22T10:49:57.345Z,6.83
2019-03-22T10:51:05.576Z,7.50
2019-03-22T10:52:13.803Z,7.20
2019-03-22T10:53:21.790Z,7.47
2019-03-22T10:54:29.731Z,12.93
2019-03-22T10:55:38.173Z,13.03
2019-03-22T10:56:46.210Z,6.93
2019-03-22T10:57:55.593Z,8.07
2019-03-22T10:59:03.881Z,8.57
2019-03-22T11:00:16.319Z,8.60
2019-03-22T11:01:24.653Z,6.63
2019-03-22T11:02:32.995Z,11.77
2019-03-22T11:03:41.007Z,10.90
2019-03-22T11:04:49.267Z,4.37
2019-03-22T11:05:57.122Z,4.20
2019-03-22T11:07:05.573Z,5.73
2019-03-22T11:08:13.769Z,7.53
2019-03-22T11:09:21.723Z,5.03
2019-03-22T11:10:29.739Z,12.03
2019-03-22T11:11:37.637Z,10.93
2019-03-22T11:12:46.117Z,5.90
2019-03-22T11:13:54.239Z,6.67
2019-03-22T11:15:02.104Z,8.17
2019-03-22T11:16:09.908Z,4.47
2019-03-22T11:17:18.013Z,3.80
2019-03-22T11:18:26.113Z,7.23
2019-03-22T11:19:34.118Z,10.77
2019-03-22T11:20:42.135Z,11.13
2019-03-22T11:21:50.202Z,6.87
2019-03-22T11:22:58.190Z,3.30
2019-03-22T11:24:06.537Z,6.23
2019-03-22T11:25:14.749Z,4.83
2019-03-22T11:26:23.055Z,5.93
2019-03-22T11:27:30.988Z,7.80
2019-03-22T11:28:38.774Z,9.33
2019-03-22T11:29:46.936Z,4.27
2019-03-22T11:31:01.161Z,4.43
2019-03-22T11:32:12.247Z,5.40
2019-03-22T11:33:14.781Z,3.77
2019-03-22T11:34:22.878Z,3.87
2019-03-22T11:35:31.258Z,8.47
2019-03-22T11:36:39.216Z,10.30
2019-03-22T11:37:47.713Z,5.40
2019-03-22T11:38:55.996Z,4.50
2019-03-22T11:40:05.790Z,4.37
2019-03-22T11:41:13.818Z,5.20
2019-03-22T11:42:22.026Z,5.03
2019-03-22T11:43:30.513Z,10.40
2019-03-22T11:44:38.575Z,7.77
2019-03-22T11:45:47.338Z,5.70
2019-03-22T11:46:55.430Z,4.87
2019-03-22T11:48:03.528Z,5.80
2019-03-22T11:49:11.511Z,7.60
2019-03-22T11:50:19.630Z,8.90
2019-03-22T11:51:28.112Z,8.57
2019-03-22T11:52:36.598Z,11.13
2019-03-22T11:53:44.511Z,10.53
2019-03-22T11:54:52.935Z,7.17
2019-03-22T11:56:00.959Z,7.13
2019-03-22T11:57:09.166Z,7.63
2019-03-22T11:58:17.494Z,10.20
2019-03-22T11:59:25.459Z,6.43
2019-03-22T12:00:33.519Z,10.97
2019-03-22T12:01:41.529Z,9.63
2019-03-22T12:02:49.605Z,10.20
2019-03-22T12:03:57.710Z,5.07
2019-03-22T12:05:08.835Z,8.43
2019-03-22T12:06:16.769Z,8.23
2019-03-22T12:07:25.383Z,7.03
2019-03-22T12:08:33.230Z,13.27
2019-03-22T12:09:41.258Z,12.30
2019-03-22T12:10:49.308Z,7.50
2019-03-22T12:11:57.254Z,9.60
2019-03-22T12:13:05.236Z,7.87
2019-03-22T12:14:13.136Z,8.57
2019-03-22T12:15:23.351Z,5.83
2019-03-22T12:16:31.248Z,13.13
2019-03-22T12:17:39.416Z,14.33
2019-03-22T12:18:47.895Z,10.50
2019-03-22T12:19:56.005Z,7.77
2019-03-22T12:21:04.158Z,9.27
2019-03-22T12:22:12.051Z,7.43
2019-03-22T12:23:19.965Z,7.83
2019-03-22T12:24:27.912Z,7.83
2019-03-22T12:25:36.078Z,11.50
2019-03-22T12:26:44.077Z,12.50
2019-03-22T12:27:52.221Z,9.57
2019-03-22T12:29:00.424Z,8.07
2019-03-22T12:30:18.057Z,11.43
2019-03-22T12:31:26.046Z,10.30
2019-03-22T12:32:33.945Z,14.70
2019-03-22T12:33:41.835Z,14.37
2019-03-22T12:34:50.041Z,9.97
2019-03-22T12:35:57.938Z,7.90
2019-03-22T12:37:05.918Z,13.43
2019-03-22T12:38:13.891Z,10.17
2019-03-22T12:39:22.025Z,10.13
2019-03-22T12:40:30.105Z,8.77
2019-03-22T12:41:38.119Z,17.03
2019-03-22T12:42:45.933Z,14.87
2019-03-22T12:43:54.133Z,9.03
2019-03-22T12:45:02.284Z,7.60
2019-03-22T12:46:10.175Z,8.73
2019-03-22T12:47:18.096Z,6.57
2019-03-22T12:48:26.042Z,5.63
2019-03-22T12:49:34.000Z,9.13
2019-03-22T12:50:42.004Z,9.10
2019-03-22T12:51:50.264Z,5.77
2019-03-22T12:52:58.368Z,6.77
2019-03-22T12:54:06.957Z,5.40
2019-03-22T12:55:15.515Z,4.37
2019-03-22T12:56:23.481Z,4.83
2019-03-22T12:57:31.483Z,5.17
2019-03-22T12:58:39.439Z,10.60
2019-03-22T12:59:47.443Z,8.90
2019-03-22T13:00:55.437Z,5.67
2019-03-22T13:02:03.351Z,4.43
2019-03-22T13:03:11.364Z,5.80
2019-03-22T13:04:19.462Z,4.73
2019-03-22T13:05:27.537Z,3.90
2019-03-22T13:06:35.557Z,10.77
2019-03-22T13:07:43.613Z,12.57
2019-03-22T13:08:51.697Z,4.30
2019-03-22T13:09:59.804Z,5.57
2019-03-22T13:11:07.816Z,7.00
2019-03-22T13:12:15.919Z,7.97
2019-03-22T13:13:23.983Z,6.57
2019-03-22T13:14:31.985Z,5.40
2019-03-22T13:15:39.767Z,10.00
2019-03-22T13:16:47.661Z,9.00
2019-03-22T13:17:55.991Z,5.37
2019-03-22T13:19:04.055Z,5.83
2019-03-22T13:20:16.359Z,5.40
2019-03-22T13:21:24.291Z,6.80
2019-03-22T13:22:32.442Z,4.67
2019-03-22T13:23:40.786Z,10.53
2019-03-22T13:24:48.701Z,11.70
2019-03-22T13:25:57.107Z,7.33
2019-03-22T13:27:05.155Z,5.77
2019-03-22T13:28:13.029Z,5.23
2019-03-22T13:29:21.098Z,4.80
2019-03-22T13:30:37.782Z,5.83
2019-03-22T13:31:45.845Z,11.77
2019-03-22T13:32:53.615Z,6.17
2019-03-22T13:34:01.715Z,4.83
2019-03-22T13:35:10.064Z,5.70
2019-03-22T13:36:18.124Z,6.27
2019-03-22T13:37:26.103Z,6.57
2019-03-22T13:38:34.023Z,6.87
2019-03-22T13:39:41.811Z,9.90
2019-03-22T13:40:51.765Z,10.57
2019-03-22T13:41:59.817Z,7.33
2019-03-22T13:43:07.984Z,5.80
2019-03-22T13:44:16.220Z,5.17
2019-03-22T13:45:24.429Z,4.93
2019-03-22T13:46:39.968Z,6.93
2019-03-22T13:47:42.025Z,10.17
2019-03-22T13:48:49.863Z,9.30
2019-03-22T13:49:57.930Z,7.10
2019-03-22T13:51:06.049Z,5.93
2019-03-22T13:52:14.330Z,5.30
2019-03-22T13:53:22.397Z,6.43
2019-03-22T13:54:30.260Z,7.07
2019-03-22T13:55:38.491Z,8.67
2019-03-22T13:56:46.490Z,9.80
2019-03-22T13:57:54.453Z,5.23
2019-03-22T13:59:02.818Z,5.83
2019-03-22T14:00:22.296Z,6.53
2019-03-22T14:01:30.432Z,5.90
2019-03-22T14:02:38.560Z,8.73
2019-03-22T14:03:46.568Z,10.50
2019-03-22T14:04:55.473Z,6.63
2019-03-22T14:06:03.555Z,5.87
2019-03-22T14:07:11.567Z,6.47
2019-03-22T14:08:19.682Z,5.33
2019-03-22T14:09:27.896Z,6.47
2019-03-22T14:10:37.625Z,7.17
2019-03-22T14:11:45.838Z,10.10
2019-03-22T14:12:53.763Z,6.23
2019-03-22T14:14:01.955Z,5.47
2019-03-22T14:15:11.724Z,5.17
2019-03-22T14:16:19.760Z,5.43
2019-03-22T14:17:28.096Z,4.63
2019-03-22T14:18:38.572Z,6.80
2019-03-22T14:19:46.805Z,10.47
2019-03-22T14:20:54.802Z,9.13
2019-03-22T14:22:03.436Z,5.37
2019-03-22T14:23:11.524Z,7.37
2019-03-22T14:24:19.646Z,5.83
2019-03-22T14:25:27.794Z,8.03
2019-03-22T14:26:35.935Z,6.47
2019-03-22T14:27:44.057Z,10.87
2019-03-22T14:28:52.149Z,12.03
2019-03-22T14:30:00.166Z,8.50
2019-03-22T14:31:08.447Z,5.97
2019-03-22T14:32:16.573Z,8.90
2019-03-22T14:33:24.559Z,6.77
2019-03-22T14:34:32.568Z,6.70
2019-03-22T14:35:40.541Z,10.10
2019-03-22T14:36:48.464Z,9.87
2019-03-22T14:37:56.686Z,6.27
2019-03-22T14:39:07.993Z,7.00
2019-03-22T14:40:16.683Z,7.33
2019-03-22T14:41:24.821Z,5.83
2019-03-22T14:42:33.158Z,6.50
2019-03-22T14:43:41.099Z,13.03
2019-03-22T14:44:49.268Z,10.43
2019-03-22T14:45:57.193Z,8.00
2019-03-22T14:47:05.201Z,9.47
2019-03-22T14:48:13.323Z,7.83
2019-03-22T14:49:21.341Z,7.20
2019-03-22T14:50:29.349Z,8.00
2019-03-22T14:51:37.715Z,7.07
2019-03-22T14:52:45.866Z,11.67
2019-03-22T14:53:54.121Z,10.40